Pagrindinis puslapis
METAR-TAF:

METAR-TAF

Oro uostai :

Voronežas, Rusija

platuma: 51-39N, ilguma: 039-15E, Aukštis: 154 m

Dabartinis oras

Ataskaita buvo paskelbta 30 minutes, ne 06:00 UTC
Vėjas 2 kt nuo kintamojo kryptimis
Temperatūra 23°C
Drėgmė 41%
Slėgis 1013 hPa
Matomumas 10 km arba daugiau
nėra debesų žemiau 1500 m ir nėra kamuolinių lietaus debesų

METAR: UUOO 110600Z VRB01MPS CAVOK 23/09 Q1013 R12/090070 NOSIG RMK QFE746

Laikas: 09:30 (06:30 UTC)

Prognozė

Ataskaita buvo paskelbta 1 valandą ir 31 minutes, ne 04:59 UTC
Prognozė galioja nuo 11 metu 06 UTC su 11 metu 15 UTC
Vėjas 6 kt iš Vakarų/Šiaurės Vakarų
Matomumas 10 km arba daugiau
Su prošvaistėmis ne aukštis 4000 ft
Tapsmas
nuo 11 metu 09 UTC su 11 metu 11 UTC
Su prošvaistėmis ne aukštis 4000 ft, Liūtiniai kamuoliniai debesys.
Tikimybė 40% :
Laikinai
nuo 11 metu 11 UTC su 11 metu 15 UTC
perkūnija, lietus

TAF: UUOO 110459Z 1106/1115 29003MPS 9999 BKN040 BECMG 1109/1111 BKN040CB PROB40 TEMPO 1111/1115 -TSRA

Orai ataskaitas ir orų prognozės (METAR, TAF).

turimą stotys yra geltonos ir raudonos taškus žemėlapyje.

Perkelti pele per norėdami pamatyti stoties vardą.

Tada spustelėkite, norėdami matyti oro stebėjimo ir prognozės.

Norėdami pakeisti žemėlapį: spustelėkite ant žalios mygtukų su juodo kryžiaus žemyn,; žalią mygtuką su brūkšneliu, jei norite nutolinti; arba žalių rodyklių gretimoms žemėlapius.


METAR-TAF: